Time;durP1;ratioP1;P1;durP2;ratioP2;P2;SDS_P1;SDS_P2;PMS_P1;PMS_P2;Temp;Humidity;BMP_temperature;BMP_pressure;BME280_temperature;BME280_humidity;BME280_pressure;Samples;Min_cycle;Max_cycle;Signal;HPM_P1;HPM_P2
2024/03/05 00:01:36;;;;;;;33.33;14.80;;;;;;;11.96;64.60;96772.03;5010590;28;20083;-80
2024/03/05 00:04:03;;;;;;;39.72;18.90;;;;;;;11.92;65.23;96771.00;5002060;28;20034;-80
2024/03/05 00:06:29;;;;;;;37.25;18.02;;;;;;;11.88;64.85;96764.72;5002873;28;20449;-80
2024/03/05 00:08:54;;;;;;;36.42;17.42;;;;;;;11.86;64.49;96770.22;4996493;28;20034;-80
2024/03/05 00:11:20;;;;;;;34.30;17.17;;;;;;;11.90;65.15;96773.06;5000375;28;20042;-80
2024/03/05 00:13:45;;;;;;;41.17;18.15;;;;;;;11.91;64.42;96769.44;4997221;28;20065;-80
2024/03/05 00:16:12;;;;;;;35.95;16.60;;;;;;;11.90;64.81;96765.25;5001618;28;20069;-80
2024/03/05 00:18:38;;;;;;;35.85;16.30;;;;;;;11.89;65.04;96761.06;4983975;28;20450;-80
2024/03/05 00:21:03;;;;;;;33.08;16.35;;;;;;;11.95;64.82;96767.88;4996574;28;20567;-80
2024/03/05 00:23:29;;;;;;;37.70;19.00;;;;;;;11.97;64.81;96765.78;5004090;28;20095;-80
2024/03/05 00:25:56;;;;;;;41.45;19.40;;;;;;;11.93;64.59;96762.91;5013241;28;20048;-80
2024/03/05 00:28:22;;;;;;;43.35;19.52;;;;;;;11.90;64.63;96770.47;5012282;28;20030;-80
2024/03/05 00:30:47;;;;;;;40.88;20.10;;;;;;;11.90;64.68;96767.84;5008315;28;20436;-80
2024/03/05 00:33:13;;;;;;;41.88;19.67;;;;;;;11.89;64.75;96768.88;5006122;28;20065;-80
2024/03/05 00:35:38;;;;;;;40.60;19.00;;;;;;;11.87;64.65;96758.72;4977320;28;20084;-80
2024/03/05 00:38:03;;;;;;;46.10;20.33;;;;;;;11.89;64.70;96763.66;4977233;28;20084;-80
2024/03/05 00:40:30;;;;;;;47.13;21.20;;;;;;;11.85;64.57;96763.41;4985327;28;20040;-80
2024/03/05 00:42:56;;;;;;;43.63;22.10;;;;;;;11.82;64.65;96758.72;4995563;28;20030;-80
2024/03/05 00:45:21;;;;;;;50.90;23.20;;;;;;;11.84;64.92;96763.69;4977670;28;20430;-80
2024/03/05 00:47:47;;;;;;;37.83;19.63;;;;;;;11.85;64.51;96767.84;5007083;28;20466;-80
2024/03/05 00:50:15;;;;;;;32.78;17.25;;;;;;;11.86;64.54;96759.78;4994312;28;20105;-80
2024/03/05 00:52:41;;;;;;;39.08;19.48;;;;;;;11.91;64.39;96772.84;4995521;28;20550;-80
2024/03/05 00:55:07;;;;;;;39.45;19.08;;;;;;;11.97;64.23;96771.00;4996529;28;20025;-80
2024/03/05 00:57:39;;;;;;;37.72;18.45;;;;;;;11.97;65.08;96765.78;4989298;28;20042;-80
2024/03/05 01:00:05;;;;;;;33.95;17.80;;;;;;;11.90;65.05;96770.47;5004757;28;20045;-80
2024/03/05 01:02:31;;;;;;;32.63;16.73;;;;;;;11.87;65.15;96763.16;4997342;28;20048;-80
2024/03/05 01:04:56;;;;;;;35.22;17.02;;;;;;;11.93;64.95;96770.75;4996355;28;20030;-80
2024/03/05 01:07:22;;;;;;;37.00;17.05;;;;;;;11.89;64.26;96763.66;4988366;28;20397;-80
2024/03/05 01:09:48;;;;;;;34.35;16.88;;;;;;;11.94;64.75;96771.53;5013415;28;20038;-80
2024/03/05 01:12:13;;;;;;;39.35;20.83;;;;;;;11.95;64.76;96770.50;5002542;28;20033;-80
2024/03/05 01:14:40;;;;;;;39.13;18.02;;;;;;;11.96;64.64;96769.44;5011651;28;20120;-84
2024/03/05 01:17:08;;;;;;;35.45;17.83;;;;;;;11.92;64.93;96763.19;5001805;28;20041;-83
2024/03/05 01:19:34;;;;;;;38.65;18.20;;;;;;;11.92;64.60;96758.75;4973317;28;20498;-83
2024/03/05 01:22:00;;;;;;;36.15;17.65;;;;;;;11.94;65.11;96764.50;4984725;28;20021;-83
2024/03/05 01:24:27;;;;;;;41.97;21.55;;;;;;;11.93;65.19;96754.31;5004619;28;20111;-84
2024/03/05 01:26:52;;;;;;;46.42;21.98;;;;;;;11.90;65.47;96760.81;5011929;28;20140;-84
2024/03/05 01:29:19;;;;;;;40.35;20.25;;;;;;;11.80;65.12;96745.94;4987876;28;20029;-83
2024/03/05 01:31:44;;;;;;;33.75;17.95;;;;;;;11.86;64.82;96748.53;5006131;28;20080;-83
2024/03/05 01:34:10;;;;;;;45.05;22.25;;;;;;;11.83;64.89;96749.09;5007368;28;20506;-83
2024/03/05 01:36:36;;;;;;;46.08;20.38;;;;;;;11.83;64.93;96751.69;5018070;28;20482;-83
2024/03/05 01:39:03;;;;;;;43.67;19.70;;;;;;;11.85;64.87;96741.78;5000695;28;20084;-83
2024/03/05 01:41:28;;;;;;;49.03;22.10;;;;;;;11.79;64.93;96739.16;5008478;28;20508;-82
2024/03/05 01:43:53;;;;;;;46.97;22.20;;;;;;;11.81;65.12;96747.50;4995448;28;20030;-83
2024/03/05 01:46:19;;;;;;;45.67;22.52;;;;;;;11.85;64.77;96752.22;4999091;28;20045;-84
2024/03/05 01:48:44;;;;;;;41.40;20.40;;;;;;;11.85;65.01;96750.38;4983600;28;20088;-83
2024/03/05 01:51:16;;;;;;;47.13;21.88;;;;;;;11.87;64.89;96744.91;5010365;28;20113;-83
2024/03/05 01:53:43;;;;;;;42.97;20.90;;;;;;;11.79;64.76;96744.38;4979553;28;20064;-84
2024/03/05 01:56:10;;;;;;;49.90;21.05;;;;;;;11.87;64.87;96755.34;5007487;28;20255;-83
2024/03/05 01:58:39;;;;;;;37.28;19.13;;;;;;;11.87;64.56;96750.88;5005183;28;20038;-83
2024/03/05 02:01:06;;;;;;;36.85;18.63;;;;;;;11.86;65.18;96749.34;5006358;28;20132;-84
2024/03/05 02:03:35;;;;;;;36.97;18.80;;;;;;;11.93;64.72;96749.09;4998952;28;20570;-84
2024/03/05 02:06:01;;;;;;;42.20;20.13;;;;;;;11.88;64.96;96757.69;4973527;28;20038;-82
2024/03/05 02:08:27;;;;;;;35.08;17.90;;;;;;;11.90;64.31;96760.03;5006969;28;20095;-84
2024/03/05 02:10:53;;;;;;;45.35;21.15;;;;;;;11.89;64.49;96748.81;5001565;28;20406;-84
2024/03/05 02:13:18;;;;;;;46.17;21.55;;;;;;;11.97;64.25;96765.78;5001888;28;20034;-83
2024/03/05 02:15:44;;;;;;;47.63;21.33;;;;;;;11.93;64.27;96756.94;4997231;28;20077;-83
2024/03/05 02:18:09;;;;;;;46.25;20.75;;;;;;;11.88;65.02;96755.06;5000511;28;20034;-84
2024/03/05 02:20:35;;;;;;;44.03;20.15;;;;;;;11.85;64.71;96752.22;4996735;28;20038;-84
2024/03/05 02:23:02;;;;;;;43.40;20.77;;;;;;;11.86;64.59;96753.75;4984678;28;20034;-84
2024/03/05 02:25:31;;;;;;;46.20;21.90;;;;;;;11.85;65.34;96760.03;5009578;28;20030;-80
2024/03/05 02:27:57;;;;;;;43.92;21.48;;;;;;;11.84;64.81;96756.66;4986074;28;20064;-80
2024/03/05 02:30:22;;;;;;;44.13;20.55;;;;;;;11.82;65.30;96748.28;5005758;28;20577;-80
2024/03/05 02:32:48;;;;;;;41.17;19.60;;;;;;;11.83;64.74;96754.31;4994577;28;20034;-80
2024/03/05 02:35:13;;;;;;;45.65;21.35;;;;;;;11.92;65.16;96763.19;5007905;28;20110;-80
2024/03/05 02:37:39;;;;;;;49.15;23.77;;;;;;;11.91;64.13;96764.22;4991986;28;20076;-80
2024/03/05 02:40:09;;;;;;;46.33;22.13;;;;;;;11.90;64.73;96760.81;4999199;28;20148;-80
2024/03/05 02:42:35;;;;;;;49.80;21.67;;;;;;;11.91;64.29;96767.63;5007612;28;20535;-80
2024/03/05 02:45:04;;;;;;;55.53;22.73;;;;;;;11.89;64.40;96758.44;4979833;28;20121;-84
2024/03/05 02:47:31;;;;;;;48.83;22.23;;;;;;;11.93;64.04;96765.53;5011435;28;20050;-84
2024/03/05 02:49:58;;;;;;;50.28;21.77;;;;;;;11.88;64.80;96762.91;4985256;28;20647;-84
2024/03/05 02:52:23;;;;;;;48.63;21.95;;;;;;;11.93;64.76;96762.16;5008156;28;20030;-84
2024/03/05 02:54:48;;;;;;;50.08;24.55;;;;;;;12.01;64.30;96777.25;5010044;28;20303;-83
2024/03/05 02:57:14;;;;;;;49.83;22.50;;;;;;;11.98;63.84;96769.97;4985115;28;20065;-84
2024/03/05 02:59:39;;;;;;;54.25;22.83;;;;;;;11.98;64.29;96773.34;5013776;28;20037;-84
2024/03/05 03:02:05;;;;;;;48.60;21.65;;;;;;;11.96;64.29;96774.66;5018197;28;20026;-84
2024/03/05 03:04:30;;;;;;;50.22;22.58;;;;;;;11.90;63.84;96775.69;5010827;28;20030;-84
2024/03/05 03:06:55;;;;;;;46.08;20.35;;;;;;;11.89;64.47;96779.31;4979309;28;20060;-84
2024/03/05 03:09:21;;;;;;;47.95;21.20;;;;;;;11.86;64.35;96779.84;4984095;28;20033;-84
2024/03/05 03:11:49;;;;;;;44.47;19.50;;;;;;;11.98;64.73;96788.22;4987611;28;20112;-84
2024/03/05 03:14:15;;;;;;;46.20;21.92;;;;;;;11.92;64.46;96784.06;4984700;28;20021;-83
2024/03/05 03:16:43;;;;;;;53.80;23.92;;;;;;;11.89;64.03;96787.16;5001951;28;20406;-84
2024/03/05 03:19:09;;;;;;;52.47;24.70;;;;;;;11.97;64.32;96797.09;4993744;28;20056;-84
2024/03/05 03:21:35;;;;;;;50.97;22.73;;;;;;;11.90;64.50;96793.94;4999761;28;20355;-85
2024/03/05 03:24:00;;;;;;;49.42;23.23;;;;;;;11.85;64.58;96786.88;4980510;28;20489;-84
2024/03/05 03:26:26;;;;;;;53.40;24.92;;;;;;;11.84;64.57;96787.16;5014766;28;20034;-84
2024/03/05 03:28:54;;;;;;;54.08;25.88;;;;;;;11.95;64.49;96794.75;4982128;28;20505;-84
2024/03/05 03:31:21;;;;;;;52.15;22.45;;;;;;;11.88;64.54;96790.81;5013000;28;20034;-84
2024/03/05 03:33:47;;;;;;;49.75;23.70;;;;;;;11.90;64.60;96796.56;5001092;28;20077;-84
2024/03/05 03:36:21;;;;;;;53.47;24.67;;;;;;;11.94;64.03;96792.41;5013455;28;20083;-85
2024/03/05 03:38:46;;;;;;;55.25;25.02;;;;;;;11.92;63.79;96786.66;5016484;28;20061;-84
2024/03/05 03:41:13;;;;;;;56.83;24.30;;;;;;;11.85;64.33;96789.50;4988665;28;20603;-83
2024/03/05 03:43:38;;;;;;;51.25;24.27;;;;;;;11.78;64.40;96783.78;4999420;28;20038;-84
2024/03/05 03:46:05;;;;;;;51.35;23.67;;;;;;;11.84;64.63;96793.16;5008255;28;20095;-84
2024/03/05 03:48:30;;;;;;;52.60;23.30;;;;;;;11.75;64.22;96790.28;5004785;28;20041;-83
2024/03/05 03:50:56;;;;;;;48.97;23.27;;;;;;;11.84;64.22;96794.97;4995082;28;20466;-84
2024/03/05 03:53:22;;;;;;;51.08;23.90;;;;;;;11.79;64.59;96799.16;4997802;28;20123;-85
2024/03/05 03:55:48;;;;;;;47.92;21.95;;;;;;;11.81;64.10;96801.50;5003780;28;20521;-83
2024/03/05 03:58:14;;;;;;;49.67;24.48;;;;;;;11.76;64.63;96804.91;4981421;28;20068;-84
2024/03/05 04:00:40;;;;;;;44.85;21.88;;;;;;;11.67;64.62;96803.06;4984979;28;20492;-84
2024/03/05 04:03:06;;;;;;;46.53;22.70;;;;;;;11.74;64.01;96808.81;5005194;28;20037;-84
2024/03/05 04:05:31;;;;;;;46.13;22.25;;;;;;;11.73;63.74;96813.22;4993527;28;20083;-84
2024/03/05 04:07:56;;;;;;;47.03;22.08;;;;;;;11.68;63.86;96808.00;5013337;28;20084;-84
2024/03/05 04:10:22;;;;;;;48.03;23.05;;;;;;;11.77;64.06;96808.28;4993936;28;20076;-84
2024/03/05 04:12:49;;;;;;;46.35;21.40;;;;;;;11.77;63.51;96822.13;5004785;28;20547;-83
2024/03/05 04:15:18;;;;;;;47.90;21.27;;;;;;;11.65;64.20;96820.78;4978810;28;20390;-84
2024/03/05 04:17:46;;;;;;;47.03;22.30;;;;;;;11.68;64.37;96815.84;5012427;28;20061;-83
2024/03/05 04:20:14;;;;;;;42.45;22.05;;;;;;;11.72;63.63;96819.50;5001750;28;20049;-84
2024/03/05 04:22:40;;;;;;;46.00;22.15;;;;;;;11.57;63.16;96819.50;5009984;28;20500;-84
2024/03/05 04:25:06;;;;;;;48.22;22.13;;;;;;;11.57;63.36;96815.06;4995854;28;20026;-83
2024/03/05 04:27:31;;;;;;;48.33;21.75;;;;;;;11.61;63.79;96821.31;4998062;28;20402;-84
2024/03/05 04:29:57;;;;;;;44.42;20.98;;;;;;;11.67;63.33;96821.31;4996988;28;20034;-84
2024/03/05 04:32:26;;;;;;;43.78;21.60;;;;;;;11.65;63.92;96816.34;4981416;28;20546;-84
2024/03/05 04:35:00;;;;;;;52.15;23.98;;;;;;;11.56;63.40;96823.13;4984439;28;20176;-83
2024/03/05 04:37:30;;;;;;;48.95;23.95;;;;;;;11.68;63.87;96813.22;4982424;28;20030;-84
2024/03/05 04:39:56;;;;;;;48.97;21.98;;;;;;;11.54;63.52;96820.00;4994013;28;20037;-83
2024/03/05 04:42:24;;;;;;;44.80;22.23;;;;;;;11.52;63.87;96816.88;5008253;28;20037;-83
2024/03/05 04:44:51;;;;;;;52.08;22.85;;;;;;;11.49;64.05;96822.59;4997223;28;20045;-83
2024/03/05 04:47:16;;;;;;;44.45;20.95;;;;;;;11.52;63.74;96816.88;5000330;28;20470;-80
2024/03/05 04:49:42;;;;;;;49.13;21.08;;;;;;;11.53;63.76;96823.66;5000573;28;20033;-80
2024/03/05 04:52:09;;;;;;;47.25;21.85;;;;;;;11.48;64.53;96821.84;5014268;28;20034;-80
2024/03/05 04:54:35;;;;;;;45.92;22.98;;;;;;;11.55;63.42;96818.94;5008542;28;20037;-79
2024/03/05 04:57:01;;;;;;;44.70;23.08;;;;;;;11.48;63.62;96811.41;4997754;28;20029;-80
2024/03/05 04:59:27;;;;;;;45.15;20.67;;;;;;;11.55;63.70;96821.56;5007389;28;20445;-80
2024/03/05 05:01:52;;;;;;;44.30;21.45;;;;;;;11.49;63.86;96828.59;5002562;28;20491;-80
2024/03/05 05:04:18;;;;;;;48.97;21.42;;;;;;;11.52;63.86;96835.13;4997927;28;20045;-80
2024/03/05 05:06:43;;;;;;;42.78;19.42;;;;;;;11.44;63.53;96825.97;4998529;28;20069;-80
2024/03/05 05:09:08;;;;;;;50.45;22.00;;;;;;;11.50;64.10;96816.34;5001056;28;20041;-80
2024/03/05 05:11:34;;;;;;;40.70;20.58;;;;;;;11.43;63.93;96825.19;4991295;28;20029;-79
2024/03/05 05:13:59;;;;;;;41.92;19.35;;;;;;;11.48;63.94;96816.63;4992946;28;20045;-80
2024/03/05 05:16:26;;;;;;;44.20;20.05;;;;;;;11.39;64.06;96813.72;5015020;28;20486;-84
2024/03/05 05:18:52;;;;;;;46.22;20.50;;;;;;;11.40;64.46;96830.16;4993914;28;20270;-83
2024/03/05 05:21:17;;;;;;;45.22;21.92;;;;;;;11.51;64.03;96830.94;4986069;28;20026;-84
2024/03/05 05:23:43;;;;;;;45.38;20.17;;;;;;;11.46;63.56;96821.28;4989842;28;20544;-84
2024/03/05 05:26:09;;;;;;;39.92;19.30;;;;;;;11.49;63.47;96833.03;5001743;28;20060;-84
2024/03/05 05:28:34;;;;;;;45.28;20.75;;;;;;;11.48;63.42;96831.47;5008765;28;20045;-83
2024/03/05 05:31:00;;;;;;;39.13;19.10;;;;;;;11.47;64.07;96827.31;4986389;28;20034;-83
2024/03/05 05:33:25;;;;;;;38.75;19.08;;;;;;;11.42;64.17;96828.84;4981700;28;20449;-83
2024/03/05 05:35:51;;;;;;;45.95;19.73;;;;;;;11.46;63.58;96833.53;4983870;28;20030;-84
2024/03/05 05:38:16;;;;;;;40.08;20.13;;;;;;;11.43;63.57;96825.19;5003457;28;20561;-83
2024/03/05 05:40:43;;;;;;;43.58;20.95;;;;;;;11.44;63.49;96831.97;5013853;28;20109;-83
2024/03/05 05:43:11;;;;;;;44.15;22.25;;;;;;;11.47;63.41;96815.03;4982712;28;20052;-83
2024/03/05 05:45:37;;;;;;;41.42;19.30;;;;;;;11.45;63.05;96835.38;4991068;28;20072;-83
2024/03/05 05:48:03;;;;;;;40.92;20.35;;;;;;;11.49;63.83;96839.03;4995708;28;20033;-83
2024/03/05 05:50:28;;;;;;;40.90;19.80;;;;;;;11.48;63.69;96839.28;5011315;28;20045;-84
2024/03/05 05:52:54;;;;;;;46.22;21.08;;;;;;;11.43;63.63;96840.06;5005711;28;20076;-83
2024/03/05 05:55:21;;;;;;;41.95;19.30;;;;;;;11.44;63.55;96839.78;4974953;28;20026;-83
2024/03/05 05:57:51;;;;;;;36.40;18.33;;;;;;;11.37;64.00;96823.63;4979915;28;20545;-80
2024/03/05 06:00:37;;;;;;;42.22;20.15;;;;;;;11.37;63.78;96831.44;4996472;28;20057;-80
2024/03/05 06:03:09;;;;;;;38.22;17.23;;;;;;;11.30;64.15;96825.69;5009042;28;20077;-80
2024/03/05 06:05:36;;;;;;;39.42;18.63;;;;;;;11.37;63.55;96834.03;4984580;28;20486;-80
2024/03/05 06:08:03;;;;;;;42.55;21.13;;;;;;;11.29;63.76;96818.91;4995007;28;20030;-80
2024/03/05 06:10:29;;;;;;;42.88;20.10;;;;;;;11.26;63.42;96819.44;5008584;28;20045;-79
2024/03/05 06:12:55;;;;;;;38.55;17.95;;;;;;;11.27;63.92;96822.81;4987980;28;20505;-80
2024/03/05 06:15:20;;;;;;;41.47;19.05;;;;;;;11.23;64.31;96828.53;5005236;28;20034;-79
2024/03/05 06:17:46;;;;;;;37.03;19.17;;;;;;;11.25;63.84;96821.25;5006110;28;20379;-79
2024/03/05 06:20:12;;;;;;;34.97;18.40;;;;;;;11.25;64.42;96823.06;5010142;28;20022;-80
2024/03/05 06:22:39;;;;;;;39.42;19.65;;;;;;;11.23;64.11;96823.31;5010399;28;20037;-79
2024/03/05 06:25:08;;;;;;;32.95;18.58;;;;;;;11.34;63.65;96831.94;4988803;28;20532;-79
2024/03/05 06:27:36;;;;;;;44.55;18.83;;;;;;;11.28;63.65;96827.78;4977424;28;20033;-79
2024/03/05 06:30:13;;;;;;;39.58;19.75;;;;;;;11.39;63.59;96837.16;4976050;28;20033;-80
2024/03/05 06:32:43;;;;;;;38.05;18.27;;;;;;;11.49;63.08;96833.03;5014465;28;20512;-80
2024/03/05 06:35:11;;;;;;;41.00;20.02;;;;;;;11.36;63.22;96842.91;4988665;28;20037;-80
2024/03/05 06:37:41;;;;;;;40.92;20.45;;;;;;;11.50;63.61;96845.81;4982386;28;20447;-80
2024/03/05 06:40:11;;;;;;;40.55;20.20;;;;;;;11.38;63.54;96853.88;5002213;28;20040;-79
2024/03/05 06:42:38;;;;;;;34.95;18.08;;;;;;;11.40;63.90;96846.56;5008791;28;20029;-80
2024/03/05 06:45:15;;;;;;;38.97;18.00;;;;;;;11.50;63.66;96845.81;5001551;28;20030;-79
2024/03/05 06:47:54;;;;;;;35.47;17.70;;;;;;;11.33;62.95;96843.44;5018721;28;20044;-79
2024/03/05 06:50:23;;;;;;;37.85;17.35;;;;;;;11.37;63.90;96856.72;5014065;28;20042;-80
2024/03/05 06:58:19;;;;;;;34.53;18.05;;;;;;;11.32;63.71;96870.53;4998737;28;20034;-79
2024/03/05 07:00:46;;;;;;;32.97;17.35;;;;;;;11.43;63.30;96871.34;4988199;28;20401;-79
2024/03/05 07:03:13;;;;;;;36.03;17.25;;;;;;;11.32;63.85;96869.75;4991233;28;20344;-80
2024/03/05 07:05:38;;;;;;;36.50;18.45;;;;;;;11.33;63.30;96876.53;4999553;28;20042;-79
2024/03/05 07:08:07;;;;;;;32.72;18.75;;;;;;;11.33;63.02;96866.09;4998077;28;20474;-84
2024/03/05 07:10:34;;;;;;;35.72;18.10;;;;;;;11.36;63.86;96879.41;4987177;28;20049;-84
2024/03/05 07:13:00;;;;;;;35.83;17.58;;;;;;;11.37;63.16;96882.78;5023417;28;20072;-83
2024/03/05 07:15:25;;;;;;;35.97;18.40;;;;;;;11.34;63.10;96884.06;4996715;28;20068;-84
2024/03/05 07:17:50;;;;;;;32.75;17.70;;;;;;;11.36;63.35;96887.22;5016521;28;20037;-85
2024/03/05 07:20:19;;;;;;;32.78;17.30;;;;;;;11.30;63.22;96885.63;5006595;28;20489;-84
2024/03/05 07:22:51;;;;;;;32.10;17.52;;;;;;;11.38;63.37;96892.19;4982523;28;20037;-84
2024/03/05 07:25:17;;;;;;;34.75;17.17;;;;;;;11.31;63.90;96884.59;5005559;28;20033;-84
2024/03/05 07:27:44;;;;;;;32.72;17.73;;;;;;;11.42;62.69;96898.44;4994609;28;20037;-84
2024/03/05 07:30:12;;;;;;;35.28;18.15;;;;;;;11.29;63.14;96878.84;4997591;28;20030;-83
2024/03/05 07:32:40;;;;;;;33.33;18.33;;;;;;;11.33;62.79;96897.38;4995582;28;20668;-84
2024/03/05 07:35:08;;;;;;;35.33;17.63;;;;;;;11.35;63.00;96895.31;5018790;28;20029;-84
2024/03/05 07:37:34;;;;;;;32.67;18.58;;;;;;;11.30;63.04;96898.66;4983014;28;20045;-84
2024/03/05 07:40:09;;;;;;;32.75;16.88;;;;;;;11.38;63.27;96897.41;5005972;28;20029;-84
2024/03/05 07:42:39;;;;;;;33.33;18.17;;;;;;;11.40;63.26;96903.13;5016120;28;20036;-83
2024/03/05 07:45:07;;;;;;;35.88;18.70;;;;;;;11.40;63.14;96903.13;4985450;28;20414;-84
2024/03/05 07:47:33;;;;;;;34.65;18.08;;;;;;;11.20;63.53;96898.63;5015341;28;20040;-82
2024/03/05 07:49:58;;;;;;;33.67;18.05;;;;;;;11.32;63.12;96901.78;5009970;28;20041;-84
2024/03/05 07:52:23;;;;;;;33.45;18.02;;;;;;;11.37;62.88;96911.47;5000145;28;20040;-83
2024/03/05 07:54:49;;;;;;;34.67;19.27;;;;;;;11.41;63.12;96902.88;5004267;28;20393;-83
2024/03/05 07:57:14;;;;;;;34.35;18.52;;;;;;;11.38;63.43;96907.84;4988037;28;20045;-84
2024/03/05 07:59:39;;;;;;;32.85;17.38;;;;;;;11.33;63.37;96903.38;4996134;28;20045;-83
2024/03/05 08:02:05;;;;;;;32.42;17.95;;;;;;;11.40;63.59;96908.34;4991707;28;20104;-84
2024/03/05 08:04:30;;;;;;;33.53;19.27;;;;;;;11.37;63.16;96909.63;5010367;28;20042;-84
2024/03/05 08:06:55;;;;;;;33.78;17.58;;;;;;;11.38;63.59;96918.25;5012759;28;20564;-83
2024/03/05 08:09:21;;;;;;;30.45;17.60;;;;;;;11.39;63.41;96915.38;5014882;28;20100;-80
2024/03/05 08:11:46;;;;;;;30.75;17.23;;;;;;;11.46;63.23;96915.13;4997021;28;20473;-79
2024/03/05 08:14:11;;;;;;;33.15;18.38;;;;;;;11.47;63.21;96918.53;5019501;28;20025;-79
2024/03/05 08:16:38;;;;;;;32.85;19.52;;;;;;;11.41;62.75;96926.34;5012378;28;20042;-83
2024/03/05 08:19:04;;;;;;;31.33;17.25;;;;;;;11.43;62.97;96921.66;5002357;28;20048;-82
2024/03/05 08:21:29;;;;;;;32.72;17.85;;;;;;;11.42;63.08;96917.47;4979061;28;20399;-84
2024/03/05 08:23:55;;;;;;;32.55;17.60;;;;;;;11.44;63.20;96915.38;4983597;28;20031;-85
2024/03/05 08:26:22;;;;;;;30.08;16.95;;;;;;;11.47;63.11;96926.38;4990546;28;20498;-86
2024/03/05 08:28:48;;;;;;;37.35;18.10;;;;;;;11.37;62.82;96929.72;4994551;28;20030;-84
2024/03/05 08:31:13;;;;;;;33.20;17.75;;;;;;;11.29;62.34;96917.16;5007607;28;20498;-84
2024/03/05 08:33:38;;;;;;;33.42;17.73;;;;;;;11.41;62.30;96931.56;5018007;28;20692;-84
2024/03/05 08:36:04;;;;;;;30.20;16.98;;;;;;;11.46;62.77;96937.81;4985162;28;20145;-84
2024/03/05 08:38:30;;;;;;;32.47;19.02;;;;;;;11.48;62.53;96930.53;5001200;28;20032;-84
2024/03/05 08:40:55;;;;;;;30.55;17.77;;;;;;;11.50;62.30;96931.03;4988838;28;20026;-84
2024/03/05 08:43:20;;;;;;;29.70;18.65;;;;;;;11.44;62.74;96935.47;5013305;28;20060;-82
2024/03/05 08:45:46;;;;;;;29.73;17.60;;;;;;;11.41;62.08;96923.75;4999895;28;20026;-84
2024/03/05 08:48:13;;;;;;;27.80;15.93;;;;;;;11.36;62.30;96928.94;5000229;28;20052;-83
2024/03/05 08:50:39;;;;;;;27.48;15.95;;;;;;;11.38;61.78;96937.28;5002068;28;20042;-83
2024/03/05 08:53:05;;;;;;;27.90;16.08;;;;;;;11.32;62.53;96930.47;4996306;28;20037;-84
2024/03/05 08:55:30;;;;;;;30.17;17.10;;;;;;;11.37;61.82;96940.91;5008234;28;20513;-84
2024/03/05 08:57:55;;;;;;;26.83;15.07;;;;;;;11.34;61.70;96931.00;4999827;28;20328;-83
2024/03/05 09:00:22;;;;;;;24.58;14.55;;;;;;;11.51;61.49;96941.22;4993894;28;20367;-83
2024/03/05 09:02:47;;;;;;;24.77;15.10;;;;;;;11.55;60.41;96944.09;4992764;28;20038;-84
2024/03/05 09:05:13;;;;;;;25.05;14.80;;;;;;;11.40;61.81;96945.63;4994094;28;20030;-83
2024/03/05 09:07:39;;;;;;;26.13;14.98;;;;;;;11.47;61.61;96947.22;4991701;28;20036;-84
2024/03/05 09:10:06;;;;;;;25.25;15.02;;;;;;;11.52;61.66;96950.63;5008554;28;20046;-83
2024/03/05 09:12:31;;;;;;;24.23;14.43;;;;;;;11.51;61.16;96945.66;4991404;28;20038;-83
2024/03/05 09:14:56;;;;;;;22.65;14.60;;;;;;;11.61;60.22;96945.69;5008389;28;20088;-85
2024/03/05 09:17:22;;;;;;;19.38;11.95;;;;;;;11.54;60.41;96955.59;4991912;28;20049;-83
2024/03/05 09:19:48;;;;;;;22.20;12.68;;;;;;;11.65;60.63;96951.97;4987135;28;20034;-84
2024/03/05 09:22:16;;;;;;;21.38;12.95;;;;;;;11.59;60.02;96958.22;4991584;28;20045;-85
2024/03/05 09:24:43;;;;;;;19.58;11.63;;;;;;;11.58;59.82;96964.47;4976612;28;20034;-84
2024/03/05 09:27:09;;;;;;;18.35;10.77;;;;;;;11.42;59.73;96951.38;4982639;28;20486;-79
2024/03/05 09:29:34;;;;;;;20.73;11.50;;;;;;;11.53;60.00;96960.03;5001159;28;20045;-79
2024/03/05 09:32:00;;;;;;;16.35;10.10;;;;;;;11.47;59.43;96955.03;4997734;28;20037;-79
2024/03/05 09:34:26;;;;;;;13.93;9.10;;;;;;;11.53;59.73;96965.25;5003219;28;20323;-80
2024/03/05 09:36:51;;;;;;;14.43;8.15;;;;;;;11.52;59.05;96960.28;5007721;28;20584;-79
2024/03/05 09:39:20;;;;;;;14.20;8.07;;;;;;;11.57;59.51;96962.91;4974834;28;20231;-80
2024/03/05 09:41:46;;;;;;;11.15;7.60;;;;;;;11.55;59.44;96957.13;5000460;28;20048;-79
2024/03/05 09:44:12;;;;;;;11.90;7.82;;;;;;;11.51;59.25;96958.69;4990847;28;20038;-79
2024/03/05 09:46:39;;;;;;;11.85;7.50;;;;;;;11.52;58.88;96965.50;4974858;28;20030;-79
2024/03/05 09:49:10;;;;;;;10.50;6.80;;;;;;;11.60;58.89;96959.75;5004100;28;20040;-79
2024/03/05 09:51:39;;;;;;;11.52;7.78;;;;;;;11.63;58.84;96969.69;4983066;28;20502;-79
2024/03/05 09:54:07;;;;;;;12.40;7.78;;;;;;;11.47;59.47;96965.47;4981903;28;20129;-79
2024/03/05 09:56:33;;;;;;;10.40;7.25;;;;;;;11.56;58.66;96969.94;4975318;28;20037;-79
2024/03/05 09:59:03;;;;;;;10.93;6.30;;;;;;;11.47;58.62;96965.47;4994602;28;20492;-79
2024/03/05 10:01:28;;;;;;;9.40;5.70;;;;;;;11.49;57.79;96969.38;4983454;28;20045;-79
2024/03/05 10:03:54;;;;;;;7.63;4.78;;;;;;;11.42;58.01;96969.59;5008115;28;20034;-80
2024/03/05 10:06:19;;;;;;;7.28;4.70;;;;;;;11.52;58.23;96970.72;4974410;28;20029;-79
2024/03/05 10:08:44;;;;;;;7.90;4.78;;;;;;;11.61;58.43;96971.78;5000968;28;20387;-79
2024/03/05 10:11:10;;;;;;;7.53;4.35;;;;;;;11.64;58.04;96960.84;5007092;28;20041;-86
2024/03/05 10:13:36;;;;;;;8.77;5.22;;;;;;;11.81;58.08;96971.06;5018591;28;20120;-82
2024/03/05 10:16:15;;;;;;;6.40;4.50;;;;;;;12.07;56.73;96969.31;4993877;28;20525;-83
2024/03/05 10:18:41;;;;;;;8.70;5.68;;;;;;;12.13;57.32;96972.72;5003404;28;20044;-83
2024/03/05 10:21:21;;;;;;;7.28;4.30;;;;;;;12.32;56.99;96979.00;4985434;28;20030;-83
2024/03/05 10:24:00;;;;;;;4.97;3.50;;;;;;;12.24;56.37;96970.91;4998189;28;20528;-83
2024/03/05 10:26:30;;;;;;;5.53;3.55;;;;;;;12.24;56.50;96976.13;4977970;28;20129;-82
2024/03/05 10:29:09;;;;;;;6.80;4.28;;;;;;;12.40;56.61;96977.69;5011853;28;20076;-86
2024/03/05 10:31:39;;;;;;;3.65;2.67;;;;;;;12.14;55.92;96972.44;4991078;28;20395;-83
2024/03/05 10:34:06;;;;;;;4.65;2.38;;;;;;;12.07;54.96;96978.97;4986023;28;20026;-82
2024/03/05 10:36:40;;;;;;;4.63;2.47;;;;;;;12.14;56.83;96972.44;5000172;28;20038;-86
2024/03/05 10:39:06;;;;;;;3.95;3.17;;;;;;;12.07;56.52;96969.31;4992483;28;20109;-86
2024/03/05 10:41:38;;;;;;;3.83;2.88;;;;;;;12.18;56.29;96976.13;5010819;28;20124;-88
2024/03/05 10:44:06;;;;;;;4.22;2.95;;;;;;;12.14;56.88;96976.91;5009665;28;20563;-85
2024/03/05 10:46:33;;;;;;;5.05;2.80;;;;;;;12.21;56.39;96980.03;4999466;28;20069;-86
2024/03/05 10:49:00;;;;;;;4.70;3.05;;;;;;;12.17;56.15;96974.56;5017267;28;20105;-86
2024/03/05 10:51:29;;;;;;;5.32;2.92;;;;;;;12.35;56.48;96986.34;5010364;28;20034;-86
2024/03/05 10:54:01;;;;;;;4.85;3.33;;;;;;;12.40;56.01;96987.38;5010035;28;20490;-86
2024/03/05 10:56:28;;;;;;;4.07;2.90;;;;;;;12.34;56.10;96978.75;4999781;28;20100;-86
2024/03/05 11:01:38;;;;;;;6.00;3.10;;;;;;;12.45;55.36;96982.94;4999960;28;20410;-86
2024/03/05 11:04:12;;;;;;;4.18;3.20;;;;;;;12.57;56.22;96993.13;5010291;28;20087;-85
2024/03/05 11:06:40;;;;;;;5.18;2.58;;;;;;;12.54;56.13;96978.75;5004066;28;20409;-85
2024/03/05 11:09:07;;;;;;;4.45;3.05;;;;;;;12.59;54.50;96993.63;5009661;28;20498;-87
2024/03/05 11:11:34;;;;;;;3.72;2.55;;;;;;;12.56;55.23;96986.34;4998300;28;20037;-87
2024/03/05 11:14:01;;;;;;;4.60;2.80;;;;;;;12.47;55.83;96988.66;4986043;28;20022;-86
2024/03/05 11:16:32;;;;;;;4.35;2.53;;;;;;;12.57;56.95;96997.56;4997915;28;20046;-85
2024/03/05 11:18:58;;;;;;;4.07;2.80;;;;;;;12.76;56.39;96989.97;4976781;28;20068;-84
2024/03/05 11:21:25;;;;;;;3.58;2.42;;;;;;;12.87;54.39;96997.56;4980270;28;20076;-85
2024/03/05 11:23:50;;;;;;;4.75;3.03;;;;;;;12.92;55.01;96988.94;5012168;28;20108;-80
2024/03/05 11:26:22;;;;;;;4.15;2.75;;;;;;;12.97;56.54;96981.09;5002315;28;20120;-81